sensor_id;sensor_type;location;lat;lon;timestamp;temperature;humidity
56240;DHT22;42154;51.992;5.896;2023-06-26T00:01:19;24.40;95.70
56240;DHT22;42154;51.992;5.896;2023-06-26T00:03:48;24.40;95.90
56240;DHT22;42154;51.992;5.896;2023-06-26T00:06:14;24.30;96.10
56240;DHT22;42154;51.992;5.896;2023-06-26T00:08:39;24.30;96.30
56240;DHT22;42154;51.992;5.896;2023-06-26T00:11:05;24.20;96.50
56240;DHT22;42154;51.992;5.896;2023-06-26T00:13:31;24.20;96.60
56240;DHT22;42154;51.992;5.896;2023-06-26T00:15:57;24.10;96.80
56240;DHT22;42154;51.992;5.896;2023-06-26T00:18:23;24.10;96.90
56240;DHT22;42154;51.992;5.896;2023-06-26T00:20:49;24.00;97.00
56240;DHT22;42154;51.992;5.896;2023-06-26T00:23:18;24.00;97.10
56240;DHT22;42154;51.992;5.896;2023-06-26T00:25:44;24.00;97.20
56240;DHT22;42154;51.992;5.896;2023-06-26T00:28:10;23.90;97.40
56240;DHT22;42154;51.992;5.896;2023-06-26T00:30:37;23.90;97.60
56240;DHT22;42154;51.992;5.896;2023-06-26T00:33:03;23.80;97.70
56240;DHT22;42154;51.992;5.896;2023-06-26T00:35:30;23.80;97.90
56240;DHT22;42154;51.992;5.896;2023-06-26T00:37:56;23.70;98.10
56240;DHT22;42154;51.992;5.896;2023-06-26T00:40:22;23.70;98.20
56240;DHT22;42154;51.992;5.896;2023-06-26T00:42:47;23.60;98.30
56240;DHT22;42154;51.992;5.896;2023-06-26T00:45:14;23.60;98.50
56240;DHT22;42154;51.992;5.896;2023-06-26T00:47:39;23.60;98.70
56240;DHT22;42154;51.992;5.896;2023-06-26T00:50:05;23.50;98.80
56240;DHT22;42154;51.992;5.896;2023-06-26T00:52:32;23.50;99.00
56240;DHT22;42154;51.992;5.896;2023-06-26T00:54:59;23.50;99.10
56240;DHT22;42154;51.992;5.896;2023-06-26T00:57:25;23.40;99.30
56240;DHT22;42154;51.992;5.896;2023-06-26T00:59:53;23.40;99.50
56240;DHT22;42154;51.992;5.896;2023-06-26T01:02:20;23.40;99.70
56240;DHT22;42154;51.992;5.896;2023-06-26T01:04:52;23.30;99.80
56240;DHT22;42154;51.992;5.896;2023-06-26T01:07:20;23.40;99.90
56240;DHT22;42154;51.992;5.896;2023-06-26T01:09:48;23.30;99.90
56240;DHT22;42154;51.992;5.896;2023-06-26T01:12:14;23.30;99.90
56240;DHT22;42154;51.992;5.896;2023-06-26T01:14:41;23.30;99.90
56240;DHT22;42154;51.992;5.896;2023-06-26T01:17:07;23.20;99.90
56240;DHT22;42154;51.992;5.896;2023-06-26T01:19:38;23.20;99.90
56240;DHT22;42154;51.992;5.896;2023-06-26T01:24:48;23.10;99.90
56240;DHT22;42154;51.992;5.896;2023-06-26T01:27:20;23.10;99.90
56240;DHT22;42154;51.992;5.896;2023-06-26T01:29:50;23.10;99.90
56240;DHT22;42154;51.992;5.896;2023-06-26T01:32:17;23.10;99.90
56240;DHT22;42154;51.992;5.896;2023-06-26T01:34:44;23.00;99.90
56240;DHT22;42154;51.992;5.896;2023-06-26T01:37:10;23.10;99.90
56240;DHT22;42154;51.992;5.896;2023-06-26T01:39:36;23.00;99.90
56240;DHT22;42154;51.992;5.896;2023-06-26T01:42:02;23.00;99.90
56240;DHT22;42154;51.992;5.896;2023-06-26T01:44:35;23.00;99.90
56240;DHT22;42154;51.992;5.896;2023-06-26T01:47:05;23.00;99.90
56240;DHT22;42154;51.992;5.896;2023-06-26T01:49:39;23.10;99.90
56240;DHT22;42154;51.992;5.896;2023-06-26T01:52:14;23.10;99.90
56240;DHT22;42154;51.992;5.896;2023-06-26T01:54:52;23.20;99.90
56240;DHT22;42154;51.992;5.896;2023-06-26T01:57:18;23.20;99.90
56240;DHT22;42154;51.992;5.896;2023-06-26T01:59:46;23.20;99.90
56240;DHT22;42154;51.992;5.896;2023-06-26T02:02:12;23.20;99.90
56240;DHT22;42154;51.992;5.896;2023-06-26T02:04:39;23.30;99.90
56240;DHT22;42154;51.992;5.896;2023-06-26T02:07:05;23.30;99.90
56240;DHT22;42154;51.992;5.896;2023-06-26T02:09:32;23.30;99.90
56240;DHT22;42154;51.992;5.896;2023-06-26T02:11:57;23.30;99.90
56240;DHT22;42154;51.992;5.896;2023-06-26T02:14:23;23.30;99.90
56240;DHT22;42154;51.992;5.896;2023-06-26T02:16:49;23.30;99.90
56240;DHT22;42154;51.992;5.896;2023-06-26T02:19:15;23.30;99.90
56240;DHT22;42154;51.992;5.896;2023-06-26T02:21:49;23.30;99.90
56240;DHT22;42154;51.992;5.896;2023-06-26T02:24:15;23.30;99.90
56240;DHT22;42154;51.992;5.896;2023-06-26T02:26:41;23.20;99.90
56240;DHT22;42154;51.992;5.896;2023-06-26T02:29:10;23.20;99.80
56240;DHT22;42154;51.992;5.896;2023-06-26T02:31:36;23.20;99.80
56240;DHT22;42154;51.992;5.896;2023-06-26T02:34:02;23.10;99.70
56240;DHT22;42154;51.992;5.896;2023-06-26T02:36:27;23.10;99.70
56240;DHT22;42154;51.992;5.896;2023-06-26T02:38:53;23.00;99.70
56240;DHT22;42154;51.992;5.896;2023-06-26T02:41:19;23.00;99.70
56240;DHT22;42154;51.992;5.896;2023-06-26T02:43:45;22.90;99.80
56240;DHT22;42154;51.992;5.896;2023-06-26T02:46:11;22.90;99.80
56240;DHT22;42154;51.992;5.896;2023-06-26T02:48:36;22.80;99.90
56240;DHT22;42154;51.992;5.896;2023-06-26T02:51:02;22.80;99.90
56240;DHT22;42154;51.992;5.896;2023-06-26T02:53:31;22.80;99.90
56240;DHT22;42154;51.992;5.896;2023-06-26T02:55:57;22.80;99.90
56240;DHT22;42154;51.992;5.896;2023-06-26T02:58:22;22.70;99.90
56240;DHT22;42154;51.992;5.896;2023-06-26T03:00:49;22.70;99.90
56240;DHT22;42154;51.992;5.896;2023-06-26T03:03:17;22.60;99.90
56240;DHT22;42154;51.992;5.896;2023-06-26T03:05:43;22.50;99.90
56240;DHT22;42154;51.992;5.896;2023-06-26T03:08:09;22.50;99.90
56240;DHT22;42154;51.992;5.896;2023-06-26T03:10:35;22.40;99.90
56240;DHT22;42154;51.992;5.896;2023-06-26T03:13:01;22.40;99.90
56240;DHT22;42154;51.992;5.896;2023-06-26T03:15:27;22.40;99.90
56240;DHT22;42154;51.992;5.896;2023-06-26T03:17:53;22.40;99.90
56240;DHT22;42154;51.992;5.896;2023-06-26T03:20:24;22.30;99.90
56240;DHT22;42154;51.992;5.896;2023-06-26T03:22:57;22.30;99.90
56240;DHT22;42154;51.992;5.896;2023-06-26T03:25:23;22.20;99.90
56240;DHT22;42154;51.992;5.896;2023-06-26T03:27:55;22.20;99.90
56240;DHT22;42154;51.992;5.896;2023-06-26T03:30:21;22.20;99.90
56240;DHT22;42154;51.992;5.896;2023-06-26T03:32:49;22.20;99.90
56240;DHT22;42154;51.992;5.896;2023-06-26T03:35:16;22.20;99.90
56240;DHT22;42154;51.992;5.896;2023-06-26T03:37:42;22.10;99.90
56240;DHT22;42154;51.992;5.896;2023-06-26T03:40:08;22.10;99.90
56240;DHT22;42154;51.992;5.896;2023-06-26T03:42:35;22.00;99.90
56240;DHT22;42154;51.992;5.896;2023-06-26T03:45:00;22.00;99.90
56240;DHT22;42154;51.992;5.896;2023-06-26T03:47:28;22.00;99.90
56240;DHT22;42154;51.992;5.896;2023-06-26T03:49:55;21.90;99.90
56240;DHT22;42154;51.992;5.896;2023-06-26T03:52:21;21.90;99.90
56240;DHT22;42154;51.992;5.896;2023-06-26T03:54:46;21.80;99.90
56240;DHT22;42154;51.992;5.896;2023-06-26T03:57:15;21.80;99.90
56240;DHT22;42154;51.992;5.896;2023-06-26T03:59:41;21.80;99.90
56240;DHT22;42154;51.992;5.896;2023-06-26T04:02:07;21.80;99.90
56240;DHT22;42154;51.992;5.896;2023-06-26T04:04:32;21.80;99.90
56240;DHT22;42154;51.992;5.896;2023-06-26T04:06:58;21.80;99.90
56240;DHT22;42154;51.992;5.896;2023-06-26T04:09:25;21.80;99.90
56240;DHT22;42154;51.992;5.896;2023-06-26T04:11:51;21.80;99.90
56240;DHT22;42154;51.992;5.896;2023-06-26T04:14:17;21.80;99.90
56240;DHT22;42154;51.992;5.896;2023-06-26T04:16:43;21.70;99.90
56240;DHT22;42154;51.992;5.896;2023-06-26T04:19:09;21.70;99.90
56240;DHT22;42154;51.992;5.896;2023-06-26T04:21:35;21.70;99.90
56240;DHT22;42154;51.992;5.896;2023-06-26T04:24:01;21.70;99.90
56240;DHT22;42154;51.992;5.896;2023-06-26T04:26:27;21.90;99.90
56240;DHT22;42154;51.992;5.896;2023-06-26T04:28:54;22.10;99.90
56240;DHT22;42154;51.992;5.896;2023-06-26T04:31:20;22.30;99.90
56240;DHT22;42154;51.992;5.896;2023-06-26T04:33:45;22.30;99.90
56240;DHT22;42154;51.992;5.896;2023-06-26T04:36:17;22.20;99.90
56240;DHT22;42154;51.992;5.896;2023-06-26T04:44:07;21.90;99.90
56240;DHT22;42154;51.992;5.896;2023-06-26T04:46:33;21.80;99.90
56240;DHT22;42154;51.992;5.896;2023-06-26T04:48:59;21.80;99.90
56240;DHT22;42154;51.992;5.896;2023-06-26T04:51:25;21.80;99.90
56240;DHT22;42154;51.992;5.896;2023-06-26T04:53:52;21.80;99.90
56240;DHT22;42154;51.992;5.896;2023-06-26T04:56:18;22.10;99.90
56240;DHT22;42154;51.992;5.896;2023-06-26T04:58:44;22.20;99.90
56240;DHT22;42154;51.992;5.896;2023-06-26T05:01:09;22.20;99.90
56240;DHT22;42154;51.992;5.896;2023-06-26T05:03:35;22.00;99.90
56240;DHT22;42154;51.992;5.896;2023-06-26T05:06:02;21.90;99.90
56240;DHT22;42154;51.992;5.896;2023-06-26T05:08:28;21.90;99.90
56240;DHT22;42154;51.992;5.896;2023-06-26T05:10:53;22.00;99.90
56240;DHT22;42154;51.992;5.896;2023-06-26T05:13:24;22.10;99.90
56240;DHT22;42154;51.992;5.896;2023-06-26T05:15:50;22.20;99.90
56240;DHT22;42154;51.992;5.896;2023-06-26T05:18:15;22.30;99.90
56240;DHT22;42154;51.992;5.896;2023-06-26T05:20:41;22.40;99.90
56240;DHT22;42154;51.992;5.896;2023-06-26T05:23:07;22.50;99.90
56240;DHT22;42154;51.992;5.896;2023-06-26T05:25:33;22.60;99.90
56240;DHT22;42154;51.992;5.896;2023-06-26T05:28:00;22.70;99.90
56240;DHT22;42154;51.992;5.896;2023-06-26T05:30:26;22.70;99.90
56240;DHT22;42154;51.992;5.896;2023-06-26T05:32:53;22.80;99.90
56240;DHT22;42154;51.992;5.896;2023-06-26T05:35:22;22.80;99.90
56240;DHT22;42154;51.992;5.896;2023-06-26T05:37:49;22.90;99.90
56240;DHT22;42154;51.992;5.896;2023-06-26T05:40:16;22.90;99.90
56240;DHT22;42154;51.992;5.896;2023-06-26T05:42:43;22.90;99.90
56240;DHT22;42154;51.992;5.896;2023-06-26T05:45:10;22.90;99.90
56240;DHT22;42154;51.992;5.896;2023-06-26T05:47:36;22.80;99.90
56240;DHT22;42154;51.992;5.896;2023-06-26T05:50:02;22.80;99.90
56240;DHT22;42154;51.992;5.896;2023-06-26T05:52:28;22.80;99.90
56240;DHT22;42154;51.992;5.896;2023-06-26T05:54:55;22.80;99.90
56240;DHT22;42154;51.992;5.896;2023-06-26T05:57:28;22.80;99.90
56240;DHT22;42154;51.992;5.896;2023-06-26T05:59:55;22.80;99.90
56240;DHT22;42154;51.992;5.896;2023-06-26T06:02:21;22.90;99.90
56240;DHT22;42154;51.992;5.896;2023-06-26T06:04:46;22.90;99.90
56240;DHT22;42154;51.992;5.896;2023-06-26T06:07:12;23.00;99.90
56240;DHT22;42154;51.992;5.896;2023-06-26T06:09:38;23.00;99.90
56240;DHT22;42154;51.992;5.896;2023-06-26T06:12:05;23.10;99.90
56240;DHT22;42154;51.992;5.896;2023-06-26T06:14:32;23.10;99.90
56240;DHT22;42154;51.992;5.896;2023-06-26T06:16:58;23.20;99.90
56240;DHT22;42154;51.992;5.896;2023-06-26T06:19:24;23.20;99.90
56240;DHT22;42154;51.992;5.896;2023-06-26T06:21:49;23.30;99.90
56240;DHT22;42154;51.992;5.896;2023-06-26T06:24:15;23.40;99.90
56240;DHT22;42154;51.992;5.896;2023-06-26T06:26:41;23.40;99.90
56240;DHT22;42154;51.992;5.896;2023-06-26T06:29:07;23.50;99.90
56240;DHT22;42154;51.992;5.896;2023-06-26T06:31:32;23.50;99.90
56240;DHT22;42154;51.992;5.896;2023-06-26T06:33:58;23.60;99.90
56240;DHT22;42154;51.992;5.896;2023-06-26T06:36:24;23.60;99.80
56240;DHT22;42154;51.992;5.896;2023-06-26T06:38:50;23.70;99.80
56240;DHT22;42154;51.992;5.896;2023-06-26T06:41:15;23.70;99.20
56240;DHT22;42154;51.992;5.896;2023-06-26T06:43:42;23.80;98.90
56240;DHT22;42154;51.992;5.896;2023-06-26T06:46:08;23.80;98.60
56240;DHT22;42154;51.992;5.896;2023-06-26T06:48:34;23.80;98.50
56240;DHT22;42154;51.992;5.896;2023-06-26T06:51:00;23.90;98.50
56240;DHT22;42154;51.992;5.896;2023-06-26T06:53:26;24.10;98.30
56240;DHT22;42154;51.992;5.896;2023-06-26T06:55:52;24.10;97.80
56240;DHT22;42154;51.992;5.896;2023-06-26T06:58:17;24.10;97.70
56240;DHT22;42154;51.992;5.896;2023-06-26T07:00:45;24.10;97.60
56240;DHT22;42154;51.992;5.896;2023-06-26T07:03:10;24.10;97.50
56240;DHT22;42154;51.992;5.896;2023-06-26T07:05:37;24.00;97.50
56240;DHT22;42154;51.992;5.896;2023-06-26T07:08:03;23.90;97.60
56240;DHT22;42154;51.992;5.896;2023-06-26T07:10:29;24.00;97.50
56240;DHT22;42154;51.992;5.896;2023-06-26T07:12:55;24.00;97.60
56240;DHT22;42154;51.992;5.896;2023-06-26T07:15:21;24.00;97.50
56240;DHT22;42154;51.992;5.896;2023-06-26T07:17:47;24.00;97.50
56240;DHT22;42154;51.992;5.896;2023-06-26T07:20:12;24.10;97.40
56240;DHT22;42154;51.992;5.896;2023-06-26T07:22:42;24.30;97.10
56240;DHT22;42154;51.992;5.896;2023-06-26T07:25:08;24.50;96.90
56240;DHT22;42154;51.992;5.896;2023-06-26T07:27:35;24.60;96.90
56240;DHT22;42154;51.992;5.896;2023-06-26T07:30:02;24.50;96.40
56240;DHT22;42154;51.992;5.896;2023-06-26T07:32:28;24.40;96.60
56240;DHT22;42154;51.992;5.896;2023-06-26T07:34:54;24.30;96.80
56240;DHT22;42154;51.992;5.896;2023-06-26T07:37:19;24.20;96.60
56240;DHT22;42154;51.992;5.896;2023-06-26T07:39:45;24.30;96.80
56240;DHT22;42154;51.992;5.896;2023-06-26T07:42:11;24.30;96.90
56240;DHT22;42154;51.992;5.896;2023-06-26T07:44:36;24.40;96.70
56240;DHT22;42154;51.992;5.896;2023-06-26T07:47:02;24.30;96.70
56240;DHT22;42154;51.992;5.896;2023-06-26T07:49:29;24.20;96.80
56240;DHT22;42154;51.992;5.896;2023-06-26T07:51:54;24.30;96.90
56240;DHT22;42154;51.992;5.896;2023-06-26T07:54:20;24.30;96.80
56240;DHT22;42154;51.992;5.896;2023-06-26T07:56:55;24.20;96.80
56240;DHT22;42154;51.992;5.896;2023-06-26T07:59:22;24.10;97.00
56240;DHT22;42154;51.992;5.896;2023-06-26T08:01:52;24.00;97.10
56240;DHT22;42154;51.992;5.896;2023-06-26T08:04:23;24.00;97.20
56240;DHT22;42154;51.992;5.896;2023-06-26T08:06:50;24.10;97.20
56240;DHT22;42154;51.992;5.896;2023-06-26T08:09:18;24.10;96.90
56240;DHT22;42154;51.992;5.896;2023-06-26T08:11:44;24.10;96.80
56240;DHT22;42154;51.992;5.896;2023-06-26T08:14:10;24.20;96.80
56240;DHT22;42154;51.992;5.896;2023-06-26T08:16:42;24.50;96.80
56240;DHT22;42154;51.992;5.896;2023-06-26T08:19:10;24.60;96.40
56240;DHT22;42154;51.992;5.896;2023-06-26T08:21:35;24.70;96.30
56240;DHT22;42154;51.992;5.896;2023-06-26T08:24:01;24.80;96.20
56240;DHT22;42154;51.992;5.896;2023-06-26T08:26:27;24.90;96.00
56240;DHT22;42154;51.992;5.896;2023-06-26T08:28:53;25.00;95.70
56240;DHT22;42154;51.992;5.896;2023-06-26T08:31:19;25.00;95.50
56240;DHT22;42154;51.992;5.896;2023-06-26T08:33:45;25.00;95.40
56240;DHT22;42154;51.992;5.896;2023-06-26T08:36:11;24.90;95.40
56240;DHT22;42154;51.992;5.896;2023-06-26T08:38:36;24.80;95.50
56240;DHT22;42154;51.992;5.896;2023-06-26T08:41:02;24.70;95.70
56240;DHT22;42154;51.992;5.896;2023-06-26T08:43:28;24.50;95.90
56240;DHT22;42154;51.992;5.896;2023-06-26T08:45:54;24.50;96.10
56240;DHT22;42154;51.992;5.896;2023-06-26T08:48:21;24.50;96.30
56240;DHT22;42154;51.992;5.896;2023-06-26T08:50:49;24.60;96.30
56240;DHT22;42154;51.992;5.896;2023-06-26T08:55:53;24.60;95.30
56240;DHT22;42154;51.992;5.896;2023-06-26T08:58:20;24.50;94.80
56240;DHT22;42154;51.992;5.896;2023-06-26T09:00:46;24.50;95.10
56240;DHT22;42154;51.992;5.896;2023-06-26T09:03:12;24.50;94.90
56240;DHT22;42154;51.992;5.896;2023-06-26T09:05:39;24.60;94.70
56240;DHT22;42154;51.992;5.896;2023-06-26T09:08:04;24.70;94.50
56240;DHT22;42154;51.992;5.896;2023-06-26T09:10:30;24.80;94.20
56240;DHT22;42154;51.992;5.896;2023-06-26T09:12:56;24.90;93.90
56240;DHT22;42154;51.992;5.896;2023-06-26T09:15:23;24.80;93.60
56240;DHT22;42154;51.992;5.896;2023-06-26T09:17:50;24.70;93.70
56240;DHT22;42154;51.992;5.896;2023-06-26T09:20:16;24.60;93.90
56240;DHT22;42154;51.992;5.896;2023-06-26T09:22:43;24.70;93.90
56240;DHT22;42154;51.992;5.896;2023-06-26T09:25:12;24.90;93.20
56240;DHT22;42154;51.992;5.896;2023-06-26T09:27:38;25.00;93.20
56240;DHT22;42154;51.992;5.896;2023-06-26T09:30:05;25.10;92.40
56240;DHT22;42154;51.992;5.896;2023-06-26T09:32:37;25.10;91.60
56240;DHT22;42154;51.992;5.896;2023-06-26T09:35:04;25.00;91.60
56240;DHT22;42154;51.992;5.896;2023-06-26T09:37:30;25.00;91.70
56240;DHT22;42154;51.992;5.896;2023-06-26T09:39:55;25.00;91.40
56240;DHT22;42154;51.992;5.896;2023-06-26T09:42:21;25.00;91.30
56240;DHT22;42154;51.992;5.896;2023-06-26T09:44:48;25.00;89.40
56240;DHT22;42154;51.992;5.896;2023-06-26T09:47:18;25.00;87.80
56240;DHT22;42154;51.992;5.896;2023-06-26T09:49:45;25.00;88.30
56240;DHT22;42154;51.992;5.896;2023-06-26T09:52:15;25.30;88.60
56240;DHT22;42154;51.992;5.896;2023-06-26T09:54:45;25.50;88.20
56240;DHT22;42154;51.992;5.896;2023-06-26T09:57:16;25.30;87.80
56240;DHT22;42154;51.992;5.896;2023-06-26T09:59:43;25.20;88.70
56240;DHT22;42154;51.992;5.896;2023-06-26T10:02:11;25.20;89.30
56240;DHT22;42154;51.992;5.896;2023-06-26T10:04:37;25.30;88.80
56240;DHT22;42154;51.992;5.896;2023-06-26T10:07:10;25.10;88.30
56240;DHT22;42154;51.992;5.896;2023-06-26T10:09:41;24.90;88.40
56240;DHT22;42154;51.992;5.896;2023-06-26T10:14:36;24.50;88.80
56240;DHT22;42154;51.992;5.896;2023-06-26T10:17:11;24.30;89.60
56240;DHT22;42154;51.992;5.896;2023-06-26T10:19:43;24.40;90.10
56240;DHT22;42154;51.992;5.896;2023-06-26T10:22:09;24.70;90.20
56240;DHT22;42154;51.992;5.896;2023-06-26T10:24:39;24.90;90.00
56240;DHT22;42154;51.992;5.896;2023-06-26T10:27:14;24.90;85.30
56240;DHT22;42154;51.992;5.896;2023-06-26T10:29:40;24.80;84.60
56240;DHT22;42154;51.992;5.896;2023-06-26T10:32:07;24.90;85.60
56240;DHT22;42154;51.992;5.896;2023-06-26T10:34:34;25.00;86.10
56240;DHT22;42154;51.992;5.896;2023-06-26T10:37:01;25.20;82.90
56240;DHT22;42154;51.992;5.896;2023-06-26T10:39:27;25.20;82.00
56240;DHT22;42154;51.992;5.896;2023-06-26T10:41:54;25.10;82.40
56240;DHT22;42154;51.992;5.896;2023-06-26T10:44:20;25.10;82.50
56240;DHT22;42154;51.992;5.896;2023-06-26T10:46:53;25.10;83.90
56240;DHT22;42154;51.992;5.896;2023-06-26T10:49:28;25.20;84.20
56240;DHT22;42154;51.992;5.896;2023-06-26T10:51:55;25.40;83.70
56240;DHT22;42154;51.992;5.896;2023-06-26T10:54:28;25.60;81.90
56240;DHT22;42154;51.992;5.896;2023-06-26T10:56:55;25.60;80.30
56240;DHT22;42154;51.992;5.896;2023-06-26T10:59:26;25.40;79.90
56240;DHT22;42154;51.992;5.896;2023-06-26T11:02:04;25.20;79.20
56240;DHT22;42154;51.992;5.896;2023-06-26T11:04:46;24.90;78.40
56240;DHT22;42154;51.992;5.896;2023-06-26T11:07:19;24.90;78.50
56240;DHT22;42154;51.992;5.896;2023-06-26T11:09:55;25.00;79.20
56240;DHT22;42154;51.992;5.896;2023-06-26T11:12:40;25.20;78.10
56240;DHT22;42154;51.992;5.896;2023-06-26T11:15:12;25.30;78.20
56240;DHT22;42154;51.992;5.896;2023-06-26T11:17:40;25.40;78.30
56240;DHT22;42154;51.992;5.896;2023-06-26T11:20:07;25.40;79.30
56240;DHT22;42154;51.992;5.896;2023-06-26T11:22:37;25.50;79.70
56240;DHT22;42154;51.992;5.896;2023-06-26T11:25:04;25.60;79.40
56240;DHT22;42154;51.992;5.896;2023-06-26T11:27:43;25.50;79.50
56240;DHT22;42154;51.992;5.896;2023-06-26T11:30:11;25.40;78.80
56240;DHT22;42154;51.992;5.896;2023-06-26T11:32:37;25.20;77.50
56240;DHT22;42154;51.992;5.896;2023-06-26T11:35:04;25.10;73.90
56240;DHT22;42154;51.992;5.896;2023-06-26T11:37:35;25.10;75.10
56240;DHT22;42154;51.992;5.896;2023-06-26T11:40:16;25.10;75.10
56240;DHT22;42154;51.992;5.896;2023-06-26T11:42:44;25.30;75.70
56240;DHT22;42154;51.992;5.896;2023-06-26T11:45:09;25.30;76.10
56240;DHT22;42154;51.992;5.896;2023-06-26T11:47:38;25.30;76.50
56240;DHT22;42154;51.992;5.896;2023-06-26T11:50:05;25.30;75.30
56240;DHT22;42154;51.992;5.896;2023-06-26T11:52:33;25.30;75.70
56240;DHT22;42154;51.992;5.896;2023-06-26T11:54:58;25.30;76.40
56240;DHT22;42154;51.992;5.896;2023-06-26T11:57:24;25.50;77.50
56240;DHT22;42154;51.992;5.896;2023-06-26T11:59:50;25.80;77.50
56240;DHT22;42154;51.992;5.896;2023-06-26T12:02:17;25.80;76.50
56240;DHT22;42154;51.992;5.896;2023-06-26T12:04:44;25.60;77.40
56240;DHT22;42154;51.992;5.896;2023-06-26T12:07:11;25.70;76.90
56240;DHT22;42154;51.992;5.896;2023-06-26T12:09:39;25.80;76.00
56240;DHT22;42154;51.992;5.896;2023-06-26T12:12:06;25.90;75.10
56240;DHT22;42154;51.992;5.896;2023-06-26T12:14:32;26.10;74.60
56240;DHT22;42154;51.992;5.896;2023-06-26T12:17:12;26.10;74.80
56240;DHT22;42154;51.992;5.896;2023-06-26T12:19:43;26.00;74.90
56240;DHT22;42154;51.992;5.896;2023-06-26T12:22:09;25.60;75.80
56240;DHT22;42154;51.992;5.896;2023-06-26T12:24:39;25.50;77.20
56240;DHT22;42154;51.992;5.896;2023-06-26T12:27:10;25.60;76.80
56240;DHT22;42154;51.992;5.896;2023-06-26T12:29:38;25.70;74.80
56240;DHT22;42154;51.992;5.896;2023-06-26T12:32:07;25.60;75.30
56240;DHT22;42154;51.992;5.896;2023-06-26T12:34:34;25.60;75.30
56240;DHT22;42154;51.992;5.896;2023-06-26T12:37:05;25.60;73.90
56240;DHT22;42154;51.992;5.896;2023-06-26T12:42:17;25.70;74.10
56240;DHT22;42154;51.992;5.896;2023-06-26T12:44:43;25.70;73.80
56240;DHT22;42154;51.992;5.896;2023-06-26T12:47:09;25.80;74.40
56240;DHT22;42154;51.992;5.896;2023-06-26T12:49:39;25.70;72.90
56240;DHT22;42154;51.992;5.896;2023-06-26T12:52:07;25.60;73.60
56240;DHT22;42154;51.992;5.896;2023-06-26T12:54:34;25.50;74.80
56240;DHT22;42154;51.992;5.896;2023-06-26T12:57:00;25.40;74.50
56240;DHT22;42154;51.992;5.896;2023-06-26T12:59:26;25.40;74.20
56240;DHT22;42154;51.992;5.896;2023-06-26T13:01:52;25.30;74.70
56240;DHT22;42154;51.992;5.896;2023-06-26T13:04:18;25.30;75.50
56240;DHT22;42154;51.992;5.896;2023-06-26T13:06:44;25.30;75.60
56240;DHT22;42154;51.992;5.896;2023-06-26T13:09:10;25.30;76.30
56240;DHT22;42154;51.992;5.896;2023-06-26T13:11:37;25.20;75.40
56240;DHT22;42154;51.992;5.896;2023-06-26T13:14:03;25.00;75.40
56240;DHT22;42154;51.992;5.896;2023-06-26T13:16:29;25.00;75.70
56240;DHT22;42154;51.992;5.896;2023-06-26T13:18:55;25.20;75.10
56240;DHT22;42154;51.992;5.896;2023-06-26T13:21:23;25.40;74.70
56240;DHT22;42154;51.992;5.896;2023-06-26T13:23:49;25.50;73.60
56240;DHT22;42154;51.992;5.896;2023-06-26T13:26:15;25.50;73.60
56240;DHT22;42154;51.992;5.896;2023-06-26T13:28:41;25.60;72.30
56240;DHT22;42154;51.992;5.896;2023-06-26T13:31:07;25.60;72.30
56240;DHT22;42154;51.992;5.896;2023-06-26T13:33:32;25.60;71.70
56240;DHT22;42154;51.992;5.896;2023-06-26T13:35:58;25.30;70.90
56240;DHT22;42154;51.992;5.896;2023-06-26T13:38:24;25.00;71.70
56240;DHT22;42154;51.992;5.896;2023-06-26T13:40:52;24.80;72.60
56240;DHT22;42154;51.992;5.896;2023-06-26T13:43:18;24.80;72.60
56240;DHT22;42154;51.992;5.896;2023-06-26T13:45:44;24.80;73.40
56240;DHT22;42154;51.992;5.896;2023-06-26T13:48:10;24.80;73.60
56240;DHT22;42154;51.992;5.896;2023-06-26T13:50:35;24.60;73.90
56240;DHT22;42154;51.992;5.896;2023-06-26T13:53:02;24.60;73.20
56240;DHT22;42154;51.992;5.896;2023-06-26T13:55:27;24.60;72.90
56240;DHT22;42154;51.992;5.896;2023-06-26T13:57:53;24.80;72.90
56240;DHT22;42154;51.992;5.896;2023-06-26T14:00:19;25.00;72.00
56240;DHT22;42154;51.992;5.896;2023-06-26T14:02:47;25.10;71.40
56240;DHT22;42154;51.992;5.896;2023-06-26T14:05:13;25.20;72.10
56240;DHT22;42154;51.992;5.896;2023-06-26T14:07:39;25.40;72.20
56240;DHT22;42154;51.992;5.896;2023-06-26T14:10:05;25.60;71.50
56240;DHT22;42154;51.992;5.896;2023-06-26T14:12:31;25.70;71.60
56240;DHT22;42154;51.992;5.896;2023-06-26T14:14:57;25.70;68.50
56240;DHT22;42154;51.992;5.896;2023-06-26T14:17:23;25.70;67.90
56240;DHT22;42154;51.992;5.896;2023-06-26T14:19:54;25.70;68.60
56240;DHT22;42154;51.992;5.896;2023-06-26T14:22:20;25.80;68.40
56240;DHT22;42154;51.992;5.896;2023-06-26T14:24:46;25.80;67.80
56240;DHT22;42154;51.992;5.896;2023-06-26T14:27:12;25.80;68.20
56240;DHT22;42154;51.992;5.896;2023-06-26T14:29:38;25.80;67.20
56240;DHT22;42154;51.992;5.896;2023-06-26T14:32:04;25.90;67.80
56240;DHT22;42154;51.992;5.896;2023-06-26T14:34:30;26.00;68.20
56240;DHT22;42154;51.992;5.896;2023-06-26T14:36:56;26.00;68.10
56240;DHT22;42154;51.992;5.896;2023-06-26T14:39:21;25.90;67.30
56240;DHT22;42154;51.992;5.896;2023-06-26T14:41:47;25.80;67.90
56240;DHT22;42154;51.992;5.896;2023-06-26T14:44:14;25.80;68.00
56240;DHT22;42154;51.992;5.896;2023-06-26T14:46:40;25.80;68.80
56240;DHT22;42154;51.992;5.896;2023-06-26T14:49:05;25.80;69.40
56240;DHT22;42154;51.992;5.896;2023-06-26T14:51:31;25.80;70.00
56240;DHT22;42154;51.992;5.896;2023-06-26T14:53:57;25.70;69.40
56240;DHT22;42154;51.992;5.896;2023-06-26T14:56:23;25.50;70.10
56240;DHT22;42154;51.992;5.896;2023-06-26T14:58:49;25.50;70.40
56240;DHT22;42154;51.992;5.896;2023-06-26T15:01:16;25.50;70.00
56240;DHT22;42154;51.992;5.896;2023-06-26T15:03:46;25.40;69.60
56240;DHT22;42154;51.992;5.896;2023-06-26T15:06:12;25.40;68.80
56240;DHT22;42154;51.992;5.896;2023-06-26T15:08:38;25.40;68.90
56240;DHT22;42154;51.992;5.896;2023-06-26T15:11:04;25.40;69.00
56240;DHT22;42154;51.992;5.896;2023-06-26T15:13:29;25.40;69.70
56240;DHT22;42154;51.992;5.896;2023-06-26T15:15:56;25.40;70.50
56240;DHT22;42154;51.992;5.896;2023-06-26T15:18:22;25.20;71.10
56240;DHT22;42154;51.992;5.896;2023-06-26T15:20:48;25.10;71.50
56240;DHT22;42154;51.992;5.896;2023-06-26T15:23:14;25.00;72.00
56240;DHT22;42154;51.992;5.896;2023-06-26T15:25:39;24.90;72.10
56240;DHT22;42154;51.992;5.896;2023-06-26T15:28:06;24.90;72.40
56240;DHT22;42154;51.992;5.896;2023-06-26T15:30:32;24.80;72.40
56240;DHT22;42154;51.992;5.896;2023-06-26T15:32:58;24.70;73.30
56240;DHT22;42154;51.992;5.896;2023-06-26T15:35:24;24.80;72.90
56240;DHT22;42154;51.992;5.896;2023-06-26T15:37:50;24.70;72.60
56240;DHT22;42154;51.992;5.896;2023-06-26T15:40:16;24.70;72.90
56240;DHT22;42154;51.992;5.896;2023-06-26T15:42:49;24.70;71.60
56240;DHT22;42154;51.992;5.896;2023-06-26T15:45:16;24.70;71.70